TAF KCYS
KCYS 280520Z 2806/2906 27010KT P6SM SCT200 FM281500 28023G35KT P6SM SCT200 FM290000 28020KT P6SM SKC=
METAR KCYS
WC KCYS
WS KCYS
WV KCYS